createdAt,value
2022-10-06T00:00:16.332Z,570.6
2022-10-06T00:01:23.126Z,568.3
2022-10-06T00:02:29.900Z,568.7
2022-10-06T00:03:36.699Z,573.1
2022-10-06T00:04:43.502Z,570
2022-10-06T00:05:50.304Z,570.3
2022-10-06T00:06:57.068Z,571.3
2022-10-06T00:08:03.859Z,572.2
2022-10-06T00:09:10.657Z,570.2
2022-10-06T00:10:17.449Z,569.9
2022-10-06T00:11:24.233Z,568.2
2022-10-06T00:14:03.747Z,569.5
2022-10-06T00:15:42.479Z,571.5
2022-10-06T00:17:21.222Z,570.2
2022-10-06T00:18:59.959Z,570.5
2022-10-06T00:20:07.229Z,568.5
2022-10-06T00:21:14.488Z,569.1
2022-10-06T00:22:53.223Z,570.6
2022-10-06T00:24:31.974Z,567.2
2022-10-06T00:26:10.700Z,568.3
2022-10-06T00:27:49.435Z,568.5
2022-10-06T00:29:28.179Z,570.1
2022-10-06T00:31:06.915Z,569.8
2022-10-06T00:32:45.654Z,574.1
2022-10-06T00:36:35.250Z,568.5
2022-10-06T00:37:41.779Z,569.4
2022-10-06T00:38:48.172Z,570.2
2022-10-06T00:39:54.644Z,569.9
2022-10-06T00:41:01.144Z,572.3
2022-10-06T00:42:07.476Z,568.9
2022-10-06T00:43:13.927Z,569.9
2022-10-06T00:44:20.348Z,572
2022-10-06T00:45:26.788Z,570.1
2022-10-06T00:46:33.229Z,573.2
2022-10-06T00:47:39.661Z,570.6
2022-10-06T00:48:46.100Z,564.6
2022-10-06T00:49:52.537Z,566.6
2022-10-06T00:50:58.975Z,569.2
2022-10-06T00:52:05.399Z,570
2022-10-06T00:53:11.864Z,566.7
2022-10-06T00:54:18.273Z,569.7
2022-10-06T00:55:24.716Z,570.2
2022-10-06T00:56:31.147Z,570
2022-10-06T00:57:37.599Z,567.2
2022-10-06T00:58:44.004Z,567
2022-10-06T00:59:50.449Z,566.6
2022-10-06T01:00:56.877Z,564.2
2022-10-06T01:02:03.332Z,568.8
2022-10-06T01:03:09.749Z,567
2022-10-06T01:04:16.205Z,567.1
2022-10-06T01:05:22.757Z,568.2
2022-10-06T01:06:29.367Z,566.5
2022-10-06T01:07:35.926Z,566.8
2022-10-06T01:08:42.413Z,566.5
2022-10-06T01:09:48.960Z,567.9
2022-10-06T01:10:55.517Z,565
2022-10-06T01:12:02.073Z,564.8
2022-10-06T01:13:08.635Z,564
2022-10-06T01:14:15.199Z,564.5
2022-10-06T01:15:21.740Z,566.6
2022-10-06T01:16:28.298Z,565.4
2022-10-06T01:17:34.855Z,566.3
2022-10-06T01:18:41.405Z,564.3
2022-10-06T01:20:30.723Z,565.5
2022-10-06T01:21:37.503Z,562.5
2022-10-06T01:22:44.287Z,563.7
2022-10-06T01:23:51.095Z,569.8
2022-10-06T01:24:57.885Z,562.2
2022-10-06T01:26:04.677Z,566.7
2022-10-06T01:27:11.456Z,567.9
2022-10-06T01:28:18.248Z,567.5
2022-10-06T01:29:25.045Z,562.2
2022-10-06T01:30:31.823Z,564.8
2022-10-06T01:31:38.620Z,562.7
2022-10-06T01:32:45.417Z,569.5
2022-10-06T01:33:52.199Z,566.1
2022-10-06T01:37:10.365Z,564.6
2022-10-06T01:38:45.827Z,566.2
2022-10-06T01:39:53.097Z,563.5
2022-10-06T01:41:31.840Z,563.7
2022-10-06T01:43:10.564Z,562.8
2022-10-06T01:44:49.297Z,563.4
2022-10-06T01:46:28.034Z,563.6
2022-10-06T01:48:06.771Z,564.2
2022-10-06T01:49:45.498Z,564
2022-10-06T01:51:24.231Z,565.7
2022-10-06T01:53:02.975Z,563.4
2022-10-06T01:54:41.711Z,566.8
2022-10-06T01:55:48.975Z,565.8
2022-10-06T01:58:49.758Z,569
2022-10-06T02:02:05.668Z,563.2
2022-10-06T02:03:12.460Z,566
2022-10-06T02:04:19.251Z,565.1
2022-10-06T02:05:26.045Z,564.2
2022-10-06T02:06:32.833Z,565.3
2022-10-06T02:07:39.617Z,562.7
2022-10-06T02:08:46.417Z,564.7
2022-10-06T02:09:53.206Z,564.6
2022-10-06T02:11:00.001Z,563.3
2022-10-06T02:12:06.788Z,565.7
2022-10-06T02:13:13.570Z,561.6
2022-10-06T02:14:20.376Z,564.1
2022-10-06T02:15:27.158Z,563.5
2022-10-06T02:16:33.940Z,564.4
2022-10-06T02:17:40.734Z,564.7
2022-10-06T02:18:47.525Z,563.7
2022-10-06T02:19:54.317Z,565.3
2022-10-06T02:21:01.106Z,562.8
2022-10-06T02:22:07.896Z,562.2
2022-10-06T02:23:14.686Z,562.9
2022-10-06T02:24:21.480Z,562.9
2022-10-06T02:25:28.294Z,562.7
2022-10-06T02:26:35.073Z,567
2022-10-06T02:27:41.844Z,566
2022-10-06T02:28:48.641Z,565
2022-10-06T02:30:21.942Z,561.7
2022-10-06T02:31:29.209Z,564.8
2022-10-06T02:33:07.933Z,565
2022-10-06T02:34:46.673Z,567.5
2022-10-06T02:36:25.408Z,564.6
2022-10-06T02:38:04.134Z,563.9
2022-10-06T02:39:42.881Z,565
2022-10-06T02:41:21.646Z,562.8
2022-10-06T02:43:00.347Z,561.2
2022-10-06T02:44:39.087Z,565.4
2022-10-06T02:46:17.810Z,562
2022-10-06T02:47:25.077Z,564
2022-10-06T02:48:32.338Z,563.4
2022-10-06T02:52:40.334Z,561.5
2022-10-06T02:55:56.041Z,561.9
2022-10-06T02:57:02.616Z,562.8
2022-10-06T02:58:09.121Z,559.1
2022-10-06T02:59:15.664Z,561
2022-10-06T03:00:22.252Z,562.5
2022-10-06T03:01:28.775Z,559.3
2022-10-06T03:02:35.323Z,559.7
2022-10-06T03:03:41.877Z,560
2022-10-06T03:04:48.428Z,564.6
2022-10-06T03:05:54.976Z,561.4
2022-10-06T03:07:01.535Z,563.6
2022-10-06T03:08:08.086Z,561.7
2022-10-06T03:09:14.639Z,563.6
2022-10-06T03:10:21.189Z,562.6
2022-10-06T03:11:27.744Z,564.5
2022-10-06T03:12:34.295Z,557.8
2022-10-06T03:13:40.844Z,560.8
2022-10-06T03:14:47.401Z,559.8
2022-10-06T03:15:53.946Z,559.5
2022-10-06T03:17:00.503Z,558.5
2022-10-06T03:18:07.053Z,559.1
2022-10-06T03:19:13.598Z,555
2022-10-06T03:20:20.162Z,559.5
2022-10-06T03:21:26.702Z,558
2022-10-06T03:22:33.257Z,559.3
2022-10-06T03:23:40.046Z,558.4
2022-10-06T03:24:46.840Z,556.9
2022-10-06T03:25:53.624Z,556.3
2022-10-06T03:27:00.430Z,559
2022-10-06T03:28:07.214Z,559.7
2022-10-06T03:29:13.998Z,558.1
2022-10-06T03:30:20.792Z,558.4
2022-10-06T03:31:27.590Z,556.4
2022-10-06T03:32:34.369Z,554.5
2022-10-06T03:33:41.151Z,556.2
2022-10-06T03:34:47.966Z,557.6
2022-10-06T03:35:54.735Z,556.2
2022-10-06T03:37:01.526Z,556
2022-10-06T03:40:19.677Z,559.2
2022-10-06T03:41:58.408Z,555.1
2022-10-06T03:43:37.146Z,558.3
2022-10-06T03:44:44.411Z,556.3
2022-10-06T03:45:51.676Z,556.3
2022-10-06T03:47:30.421Z,555.4
2022-10-06T03:49:09.144Z,558.4
2022-10-06T03:50:47.896Z,557.9
2022-10-06T03:52:26.598Z,555.9
2022-10-06T03:54:05.321Z,557.3
2022-10-06T03:55:44.051Z,559.5
2022-10-06T03:57:22.775Z,559.3
2022-10-06T03:59:01.505Z,557.2
2022-10-06T04:01:12.457Z,556
2022-10-06T04:03:07.654Z,557.9
2022-10-06T04:04:14.095Z,560.1
2022-10-06T04:05:20.508Z,557.4
2022-10-06T04:06:26.977Z,557.2
2022-10-06T04:07:33.371Z,556
2022-10-06T04:08:39.807Z,559.6
2022-10-06T04:09:46.240Z,558
2022-10-06T04:10:52.677Z,557.3
2022-10-06T04:11:59.162Z,557.9
2022-10-06T04:13:05.570Z,559.5
2022-10-06T04:14:11.994Z,555.9
2022-10-06T04:15:18.420Z,554.2
2022-10-06T04:16:24.852Z,555.7
2022-10-06T04:17:31.274Z,555.3
2022-10-06T04:18:37.712Z,560
2022-10-06T04:19:44.145Z,558
2022-10-06T04:20:50.582Z,557.8
2022-10-06T04:21:57.028Z,551.5
2022-10-06T04:23:03.449Z,558
2022-10-06T04:24:09.895Z,555
2022-10-06T04:25:16.302Z,561.2
2022-10-06T04:26:22.729Z,559.6
2022-10-06T04:27:29.161Z,556.7
2022-10-06T04:28:35.594Z,553.7
2022-10-06T04:29:42.025Z,556
2022-10-06T04:30:48.606Z,556.8
2022-10-06T04:31:55.156Z,558.3
2022-10-06T04:33:01.730Z,560.2
2022-10-06T04:34:08.342Z,557.2
2022-10-06T04:35:14.811Z,556.1
2022-10-06T04:36:21.363Z,560.4
2022-10-06T04:37:27.955Z,553.7
2022-10-06T04:38:34.483Z,560.2
2022-10-06T04:39:41.024Z,554.2
2022-10-06T04:40:47.578Z,556.2
2022-10-06T04:41:54.164Z,560
2022-10-06T04:43:00.683Z,552.8
2022-10-06T04:44:07.244Z,558.8
2022-10-06T04:45:15.046Z,550.4
2022-10-06T04:46:21.842Z,555.5
2022-10-06T04:47:28.634Z,558.4
2022-10-06T04:48:35.422Z,559.5
2022-10-06T04:49:42.214Z,554.3
2022-10-06T04:50:49.010Z,556.3
2022-10-06T04:51:55.822Z,556.5
2022-10-06T04:53:02.599Z,551.9
2022-10-06T04:54:09.392Z,553.9
2022-10-06T04:55:16.172Z,553.7
2022-10-06T04:56:23.033Z,556.4
2022-10-06T04:57:29.820Z,554
2022-10-06T04:58:36.548Z,553
2022-10-06T05:01:54.795Z,555.5
2022-10-06T05:03:01.950Z,556
2022-10-06T05:04:09.186Z,550.4
2022-10-06T05:05:48.006Z,554.6
2022-10-06T05:07:26.837Z,554
2022-10-06T05:09:05.506Z,554
2022-10-06T05:10:44.263Z,555
2022-10-06T05:12:22.892Z,552.2
2022-10-06T05:14:01.700Z,556.9
2022-10-06T05:15:40.342Z,557.5
2022-10-06T05:17:19.084Z,554.8
2022-10-06T05:18:57.824Z,555.6
2022-10-06T05:20:05.098Z,552.2
2022-10-06T05:23:05.825Z,549.4
2022-10-06T05:26:22.323Z,552.7
2022-10-06T05:28:09.172Z,556
2022-10-06T05:29:47.914Z,550.8
2022-10-06T05:31:26.654Z,556.9
2022-10-06T05:33:05.402Z,553.7
2022-10-06T05:34:44.133Z,547.8
2022-10-06T05:36:22.874Z,551.8
2022-10-06T05:37:30.132Z,552.1
2022-10-06T05:38:37.408Z,554.5
2022-10-06T05:40:16.153Z,555.2
2022-10-06T05:41:54.881Z,550.5
2022-10-06T05:43:33.595Z,554.4
2022-10-06T05:45:12.325Z,552.7
2022-10-06T05:46:51.057Z,554.8
2022-10-06T05:48:29.816Z,554.8
2022-10-06T05:50:08.522Z,552.8
2022-10-06T05:51:47.259Z,553.1
2022-10-06T05:53:25.998Z,555.4
2022-10-06T05:54:33.261Z,552.6
2022-10-06T05:55:40.532Z,555
2022-10-06T05:57:19.277Z,551.5
2022-10-06T05:58:58.005Z,553.2
2022-10-06T06:00:36.750Z,556.2
2022-10-06T06:02:15.475Z,554.1
2022-10-06T06:03:54.227Z,555.1
2022-10-06T06:08:02.231Z,552.9
2022-10-06T06:10:59.793Z,552.4
2022-10-06T06:12:06.587Z,552.1
2022-10-06T06:13:13.375Z,557.1
2022-10-06T06:14:20.171Z,551
2022-10-06T06:15:26.957Z,553.3
2022-10-06T06:16:33.756Z,555
2022-10-06T06:17:40.547Z,549.1
2022-10-06T06:18:47.342Z,555.7
2022-10-06T06:19:54.126Z,555.3
2022-10-06T06:21:00.925Z,557.3
2022-10-06T06:22:07.716Z,553.9
2022-10-06T06:23:14.507Z,555.8
2022-10-06T06:24:21.301Z,557
2022-10-06T06:25:28.093Z,553.5
2022-10-06T06:26:34.885Z,559.9
2022-10-06T06:27:41.674Z,556
2022-10-06T06:28:48.471Z,557.5
2022-10-06T06:29:55.255Z,556.2
2022-10-06T06:31:02.047Z,557.7
2022-10-06T06:32:08.835Z,557
2022-10-06T06:33:15.632Z,559
2022-10-06T06:34:22.423Z,555.9
2022-10-06T06:35:29.214Z,555.4
2022-10-06T06:36:36.008Z,555.4
2022-10-06T06:37:42.802Z,557.3
2022-10-06T06:39:15.842Z,558.4
2022-10-06T06:40:54.555Z,559.8
2022-10-06T06:42:33.297Z,560.3
2022-10-06T06:44:12.026Z,556.5
2022-10-06T06:45:50.778Z,558.3
2022-10-06T06:46:58.100Z,560.8
2022-10-06T06:48:05.307Z,558.8
2022-10-06T06:49:44.021Z,557.9
2022-10-06T06:51:22.763Z,561
2022-10-06T06:53:01.492Z,559.5
2022-10-06T06:54:40.217Z,558.4
2022-10-06T06:56:18.937Z,562.8
2022-10-06T06:57:57.681Z,559.1
2022-10-06T07:02:05.674Z,559.8
2022-10-06T07:03:24.338Z,557.7
2022-10-06T07:05:21.350Z,564.6
2022-10-06T07:06:27.905Z,561.3
2022-10-06T07:07:34.454Z,562.5
2022-10-06T07:08:41.030Z,561.6
2022-10-06T07:09:47.634Z,562.6
2022-10-06T07:10:54.119Z,563.5
2022-10-06T07:12:00.779Z,563.3
2022-10-06T07:13:07.271Z,559.8
2022-10-06T07:14:13.924Z,562.2
2022-10-06T07:15:20.473Z,560.3
2022-10-06T07:16:26.991Z,557.5
2022-10-06T07:17:33.582Z,563.2
2022-10-06T07:18:40.015Z,564.4
2022-10-06T07:19:46.614Z,560.8
2022-10-06T07:20:53.223Z,562.8
2022-10-06T07:21:59.784Z,565.2
2022-10-06T07:23:06.193Z,565.5
2022-10-06T07:24:12.762Z,562.1
2022-10-06T07:25:19.338Z,562.5
2022-10-06T07:26:25.856Z,559.9
2022-10-06T07:27:32.407Z,563.4
2022-10-06T07:28:38.961Z,565.4
2022-10-06T07:29:45.511Z,563.3
2022-10-06T07:30:52.071Z,562.1
2022-10-06T07:31:58.919Z,569
2022-10-06T07:33:05.731Z,565.5
2022-10-06T07:34:12.485Z,567.5
2022-10-06T07:35:19.375Z,564.9
2022-10-06T07:36:26.003Z,568.8
2022-10-06T07:37:32.815Z,569.8
2022-10-06T07:38:39.716Z,568.2
2022-10-06T07:39:46.382Z,570.9
2022-10-06T07:40:53.190Z,569.8
2022-10-06T07:42:00.040Z,564.7
2022-10-06T07:43:06.755Z,569.1
2022-10-06T07:44:13.575Z,567.6
2022-10-06T07:45:20.433Z,567.7
2022-10-06T07:47:58.986Z,568.1
2022-10-06T07:49:37.690Z,573.2
2022-10-06T07:51:16.433Z,575.4
2022-10-06T07:52:55.149Z,576.6
2022-10-06T07:54:02.451Z,580.8
2022-10-06T07:55:09.680Z,580.8
2022-10-06T07:56:48.410Z,580.8
2022-10-06T07:58:27.145Z,583.3
2022-10-06T08:00:05.903Z,587.6
2022-10-06T08:01:44.632Z,587.4
2022-10-06T08:03:23.353Z,588.2
2022-10-06T08:05:02.081Z,584.8
2022-10-06T08:06:40.824Z,586.3
2022-10-06T08:10:30.429Z,589.5
2022-10-06T08:11:38.693Z,587
2022-10-06T08:14:54.247Z,587.7
2022-10-06T08:16:00.682Z,590.3
2022-10-06T08:17:07.105Z,589.2
2022-10-06T08:18:13.537Z,589.7
2022-10-06T08:19:19.982Z,592.3
2022-10-06T08:20:26.399Z,588.5
2022-10-06T08:21:32.846Z,590.7
2022-10-06T08:22:39.264Z,591.4
2022-10-06T08:23:45.698Z,591.4
2022-10-06T08:24:52.136Z,589.7
2022-10-06T08:25:58.636Z,591.3
2022-10-06T08:27:05.003Z,590.4
2022-10-06T08:28:11.430Z,590.1
2022-10-06T08:29:17.864Z,591.8
2022-10-06T08:30:24.378Z,592
2022-10-06T08:31:30.733Z,588.6
2022-10-06T08:32:37.180Z,589.9
2022-10-06T08:33:43.600Z,590.1
2022-10-06T08:34:50.047Z,588.7
2022-10-06T08:35:56.465Z,583.9
2022-10-06T08:37:02.945Z,584.2
2022-10-06T08:38:09.331Z,581.3
2022-10-06T08:39:15.776Z,583.7
2022-10-06T08:40:22.219Z,583.3
2022-10-06T08:41:28.629Z,584.5
2022-10-06T08:42:35.202Z,584.9
2022-10-06T08:43:41.738Z,583.6
2022-10-06T08:44:48.293Z,581.5
2022-10-06T08:45:54.850Z,580.8
2022-10-06T08:47:01.401Z,578.8
2022-10-06T08:48:07.956Z,579.7
2022-10-06T08:49:14.500Z,581.3
2022-10-06T08:50:21.048Z,579.7
2022-10-06T08:51:27.620Z,580.3
2022-10-06T08:52:34.159Z,579.9
2022-10-06T08:53:40.711Z,581.1
2022-10-06T08:54:47.263Z,580.9
2022-10-06T08:55:53.813Z,578.5
2022-10-06T08:57:27.204Z,581.6
2022-10-06T08:58:33.996Z,582.6
2022-10-06T08:59:40.776Z,580.5
2022-10-06T09:00:47.572Z,582.5
2022-10-06T09:01:54.365Z,581.4
2022-10-06T09:03:01.220Z,586
2022-10-06T09:04:07.944Z,580.1
2022-10-06T09:05:14.729Z,584.6
2022-10-06T09:06:21.511Z,590.2
2022-10-06T09:07:28.302Z,589.6
2022-10-06T09:08:35.088Z,587.6
2022-10-06T09:09:41.896Z,590.6
2022-10-06T09:10:48.683Z,592.8
2022-10-06T09:14:06.832Z,593.7
2022-10-06T09:15:45.572Z,589.3
2022-10-06T09:17:24.305Z,587.9
2022-10-06T09:21:17.556Z,581.8
2022-10-06T09:22:56.412Z,578.7
2022-10-06T09:24:35.139Z,582.9
2022-10-06T09:27:54.688Z,580.5
2022-10-06T09:32:48.722Z,582.8
2022-10-06T09:34:59.603Z,582.1
2022-10-06T09:38:01.253Z,580.8
2022-10-06T09:38:01.479Z,578.9
2022-10-06T09:40:14.933Z,581
2022-10-06T09:42:27.041Z,580.1
2022-10-06T09:43:33.420Z,581
2022-10-06T09:45:46.282Z,583.7
2022-10-06T09:46:52.736Z,581.9
2022-10-06T09:49:05.601Z,585.3
2022-10-06T09:50:12.018Z,587.7
2022-10-06T09:51:18.527Z,590.2
2022-10-06T09:52:25.015Z,585.8
2022-10-06T09:53:31.390Z,586.8
2022-10-06T09:54:37.731Z,588.4
2022-10-06T09:55:44.162Z,588.3
2022-10-06T09:56:50.604Z,583.2
2022-10-06T09:57:57.040Z,584.8
2022-10-06T09:59:03.464Z,583.7
2022-10-06T10:00:09.898Z,583.6
2022-10-06T10:01:16.367Z,584.8
2022-10-06T10:02:22.765Z,583.7
2022-10-06T10:03:29.246Z,584
2022-10-06T10:04:35.757Z,583.4
2022-10-06T10:05:42.314Z,585.9
2022-10-06T10:06:48.911Z,583.4
2022-10-06T10:07:55.459Z,582.6
2022-10-06T10:09:02.005Z,585.2
2022-10-06T10:10:08.507Z,585.6
2022-10-06T10:11:15.062Z,583.7
2022-10-06T10:12:21.599Z,583.2
2022-10-06T10:13:28.144Z,584.1
2022-10-06T10:14:34.703Z,582.1
2022-10-06T10:15:41.244Z,585.6
2022-10-06T10:16:47.790Z,582
2022-10-06T10:17:54.344Z,582.9
2022-10-06T10:19:02.139Z,583.7
2022-10-06T10:20:08.931Z,583.3
2022-10-06T10:21:15.707Z,583.5
2022-10-06T10:22:22.495Z,582.8
2022-10-06T10:23:29.295Z,584.7
2022-10-06T10:24:36.081Z,584
2022-10-06T10:25:42.866Z,585.8
2022-10-06T10:26:49.651Z,585
2022-10-06T10:27:56.442Z,584.2
2022-10-06T10:29:03.233Z,583.8
2022-10-06T10:30:10.024Z,584.9
2022-10-06T10:31:16.808Z,584.3
2022-10-06T10:32:23.601Z,587.6
2022-10-06T10:35:41.775Z,586.6
2022-10-06T10:36:49.024Z,586.3
2022-10-06T10:37:56.294Z,586.7
2022-10-06T10:39:35.019Z,587.2
2022-10-06T10:41:13.750Z,587.6
2022-10-06T10:42:52.475Z,591.1
2022-10-06T10:44:31.237Z,589.2
2022-10-06T10:46:09.938Z,586.8
2022-10-06T10:47:48.676Z,588.8
2022-10-06T10:49:27.411Z,590.1
2022-10-06T10:51:06.259Z,586.8
2022-10-06T10:52:44.877Z,589.4
2022-10-06T10:53:52.151Z,589.5
2022-10-06T10:56:52.871Z,589.2
2022-10-06T11:00:10.311Z,589.2
2022-10-06T11:03:25.980Z,590.8
2022-10-06T11:04:32.542Z,593.2
2022-10-06T11:05:39.112Z,594.1
2022-10-06T11:06:45.674Z,590.2
2022-10-06T11:07:52.191Z,588.9
2022-10-06T11:08:58.759Z,590
2022-10-06T11:10:05.300Z,588.8
2022-10-06T11:11:11.864Z,589.7
2022-10-06T11:12:18.414Z,592.2
2022-10-06T11:13:24.956Z,591.9
2022-10-06T11:14:31.517Z,592.2
2022-10-06T11:15:38.060Z,595.2
2022-10-06T11:16:44.612Z,593.1
2022-10-06T11:17:51.178Z,591.3
2022-10-06T11:18:57.714Z,587.8
2022-10-06T11:20:04.272Z,592.1
2022-10-06T11:21:10.854Z,588.9
2022-10-06T11:22:17.380Z,589.6
2022-10-06T11:23:23.937Z,587.2
2022-10-06T11:24:30.597Z,589.1
2022-10-06T11:26:43.600Z,587.7
2022-10-06T11:27:50.149Z,592.4
2022-10-06T11:28:56.716Z,590.4
2022-10-06T11:30:03.256Z,590.9
2022-10-06T11:31:10.067Z,591.8
2022-10-06T11:32:16.840Z,592.9
2022-10-06T11:33:23.627Z,594.6
2022-10-06T11:34:30.423Z,594.6
2022-10-06T11:35:37.223Z,597.4
2022-10-06T11:36:44.005Z,595.6
2022-10-06T11:37:50.789Z,598.4
2022-10-06T11:38:57.585Z,595.4
2022-10-06T11:40:04.374Z,601.2
2022-10-06T11:41:11.165Z,601.5
2022-10-06T11:42:17.962Z,595.1
2022-10-06T11:43:24.741Z,595.4
2022-10-06T11:44:31.537Z,593.5
2022-10-06T11:47:49.817Z,593.7
2022-10-06T11:49:28.420Z,596.1
2022-10-06T11:50:35.689Z,596.3
2022-10-06T11:51:42.965Z,591.7
2022-10-06T11:53:21.682Z,597.2
2022-10-06T11:55:00.414Z,600.4
2022-10-06T11:56:39.153Z,599.6
2022-10-06T11:58:17.877Z,608.1
2022-10-06T11:59:56.613Z,614.2
2022-10-06T12:01:35.346Z,613.3
2022-10-06T12:03:14.082Z,613.7
2022-10-06T12:04:52.816Z,616
2022-10-06T12:06:31.589Z,613.8
2022-10-06T12:08:11.300Z,616.8
2022-10-06T12:11:26.981Z,616.5
2022-10-06T12:12:33.563Z,620.8
2022-10-06T12:13:40.084Z,620.3
2022-10-06T12:14:46.634Z,621.7
2022-10-06T12:15:53.195Z,621.9
2022-10-06T12:16:59.743Z,622
2022-10-06T12:18:06.304Z,621.3
2022-10-06T12:19:12.893Z,620.3
2022-10-06T12:20:19.397Z,623.6
2022-10-06T12:21:25.952Z,624.6
2022-10-06T12:22:32.510Z,625.4
2022-10-06T12:23:39.056Z,626.7
2022-10-06T12:24:45.664Z,623.6
2022-10-06T12:25:52.185Z,618.4
2022-10-06T12:26:58.712Z,615.4
2022-10-06T12:28:05.264Z,615.8
2022-10-06T12:29:11.817Z,615
2022-10-06T12:30:18.376Z,614.6
2022-10-06T12:31:24.950Z,615.6
2022-10-06T12:32:31.504Z,617.7
2022-10-06T12:33:38.027Z,616.6
2022-10-06T12:34:44.583Z,611.6
2022-10-06T12:35:51.132Z,613.7
2022-10-06T12:36:57.718Z,617.9
2022-10-06T12:38:04.248Z,621.4
2022-10-06T12:39:11.046Z,622.8
2022-10-06T12:40:17.822Z,623.1
2022-10-06T12:41:24.607Z,624
2022-10-06T12:42:31.408Z,623.6
2022-10-06T12:43:38.218Z,625.2
2022-10-06T12:44:44.983Z,623.7
2022-10-06T12:45:51.768Z,619.9
2022-10-06T12:46:58.556Z,617.6
2022-10-06T12:48:05.375Z,620.3
2022-10-06T12:49:12.138Z,620.2
2022-10-06T12:50:18.934Z,620.4
2022-10-06T12:51:25.777Z,618
2022-10-06T12:52:32.511Z,621.8
2022-10-06T12:55:11.420Z,622.8
2022-10-06T12:56:50.156Z,625.4
2022-10-06T12:58:28.890Z,624.6
2022-10-06T13:00:07.629Z,622.5
2022-10-06T13:01:14.888Z,623.5
2022-10-06T13:02:22.147Z,620.4
2022-10-06T13:04:00.910Z,616
2022-10-06T13:05:39.687Z,614.6
2022-10-06T13:07:18.348Z,618.4
2022-10-06T13:08:57.082Z,621
2022-10-06T13:10:35.811Z,618
2022-10-06T13:12:14.559Z,614.3
2022-10-06T13:13:53.282Z,612.5
2022-10-06T13:17:42.871Z,607.7
2022-10-06T13:18:49.662Z,597.6
2022-10-06T13:19:56.205Z,597.2
2022-10-06T13:21:02.752Z,596
2022-10-06T13:22:09.298Z,595.1
2022-10-06T13:23:15.883Z,593.3
2022-10-06T13:24:22.409Z,594.8
2022-10-06T13:25:28.961Z,596.7
2022-10-06T13:26:35.536Z,593.2
2022-10-06T13:27:42.078Z,591.8
2022-10-06T13:28:48.615Z,594
2022-10-06T13:29:55.279Z,595.5
2022-10-06T13:31:01.715Z,596.4
2022-10-06T13:32:08.269Z,597.5
2022-10-06T13:33:14.823Z,598
2022-10-06T13:34:21.363Z,599.8
2022-10-06T13:35:27.927Z,595.9
2022-10-06T13:36:34.473Z,594.7
2022-10-06T13:37:41.050Z,596.2
2022-10-06T13:38:47.597Z,595.5
2022-10-06T13:39:54.138Z,592.8
2022-10-06T13:41:00.680Z,594.5
2022-10-06T13:42:07.285Z,591.7
2022-10-06T13:43:13.801Z,590.7
2022-10-06T13:44:20.339Z,590.5
2022-10-06T13:45:26.903Z,591.3
2022-10-06T13:46:33.688Z,588.9
2022-10-06T13:47:40.474Z,591.1
2022-10-06T13:48:47.268Z,588.2
2022-10-06T13:49:54.113Z,588.5
2022-10-06T13:51:00.849Z,591.3
2022-10-06T13:52:07.635Z,588.6
2022-10-06T13:53:14.433Z,593
2022-10-06T13:54:21.219Z,591.2
2022-10-06T13:55:28.000Z,591.4
2022-10-06T13:56:34.805Z,592.2
2022-10-06T13:57:41.581Z,590.7
2022-10-06T13:58:48.444Z,587.8
2022-10-06T13:59:55.164Z,592.1
2022-10-06T14:02:34.420Z,588.3
2022-10-06T14:04:13.101Z,586
2022-10-06T14:05:51.868Z,587.5
2022-10-06T14:07:30.562Z,592.7
2022-10-06T14:08:37.836Z,585.6
2022-10-06T14:09:45.141Z,585.9
2022-10-06T14:11:23.840Z,587.7
2022-10-06T14:13:02.584Z,585.4
2022-10-06T14:14:41.397Z,587.5
2022-10-06T14:16:20.056Z,587
2022-10-06T14:17:58.824Z,587.8
2022-10-06T14:19:37.518Z,589.3
2022-10-06T14:21:16.261Z,587.2
2022-10-06T14:25:05.896Z,587.2
2022-10-06T14:26:12.449Z,583
2022-10-06T14:27:18.999Z,583.8
2022-10-06T14:28:25.560Z,583.1
2022-10-06T14:29:32.169Z,582.2
2022-10-06T14:30:38.664Z,583.6
2022-10-06T14:31:45.214Z,582.9
2022-10-06T14:32:51.771Z,586.1
2022-10-06T14:33:58.333Z,585
2022-10-06T14:35:04.925Z,582.6
2022-10-06T14:36:11.446Z,582.9
2022-10-06T14:37:17.984Z,582.6
2022-10-06T14:38:24.540Z,582.7
2022-10-06T14:39:31.096Z,582.3
2022-10-06T14:40:37.650Z,581.7
2022-10-06T14:41:44.204Z,584.4
2022-10-06T14:42:50.760Z,582.1
2022-10-06T14:43:57.325Z,582.8
2022-10-06T14:45:03.865Z,583.9
2022-10-06T14:46:10.418Z,584.6
2022-10-06T14:47:16.972Z,584.8
2022-10-06T14:48:23.533Z,582.8
2022-10-06T14:49:30.085Z,580.2
2022-10-06T14:50:36.648Z,582.7
2022-10-06T14:51:43.184Z,586
2022-10-06T14:52:49.740Z,581.6
2022-10-06T14:53:56.534Z,582.2
2022-10-06T14:55:03.314Z,582.6
2022-10-06T14:56:10.108Z,579.4
2022-10-06T14:57:16.903Z,583.6
2022-10-06T14:58:23.683Z,581.2
2022-10-06T14:59:30.561Z,579.1
2022-10-06T15:00:37.295Z,579
2022-10-06T15:01:44.190Z,581.8
2022-10-06T15:02:50.849Z,579.5
2022-10-06T15:03:57.656Z,580.9
2022-10-06T15:05:04.446Z,578.9
2022-10-06T15:06:11.228Z,579.3
2022-10-06T15:07:18.016Z,580.6
2022-10-06T15:09:57.202Z,583
2022-10-06T15:11:35.907Z,579
2022-10-06T15:13:14.649Z,577
2022-10-06T15:14:53.380Z,580
2022-10-06T15:16:00.648Z,581.5
2022-10-06T15:17:07.918Z,577.1
2022-10-06T15:18:46.656Z,579.9
2022-10-06T15:20:25.391Z,578.5
2022-10-06T15:22:04.124Z,579.7
2022-10-06T15:23:42.858Z,580.1
2022-10-06T15:25:21.596Z,579.7
2022-10-06T15:27:00.326Z,576.8
2022-10-06T15:28:39.070Z,578.6
2022-10-06T15:32:28.658Z,574.3
2022-10-06T15:33:35.493Z,577.5
2022-10-06T15:34:42.283Z,578.7
2022-10-06T15:35:49.083Z,576.4
2022-10-06T15:36:55.874Z,579.2
2022-10-06T15:38:02.668Z,576
2022-10-06T15:39:09.455Z,578.3
2022-10-06T15:40:16.273Z,578.4
2022-10-06T15:41:23.074Z,576.2
2022-10-06T15:42:29.840Z,577.1
2022-10-06T15:43:36.640Z,575.2
2022-10-06T15:44:43.455Z,575.7
2022-10-06T15:45:50.214Z,575.5
2022-10-06T15:46:57.018Z,576.4
2022-10-06T15:48:03.799Z,576.9
2022-10-06T15:49:10.593Z,577.9
2022-10-06T15:50:17.380Z,577.7
2022-10-06T15:51:24.179Z,574.7
2022-10-06T15:52:30.972Z,576.2
2022-10-06T15:53:37.764Z,576.1
2022-10-06T15:54:44.558Z,573.9
2022-10-06T15:55:51.376Z,575.2
2022-10-06T15:56:58.131Z,573.8
2022-10-06T15:58:04.920Z,572
2022-10-06T15:59:11.713Z,573.6
2022-10-06T16:00:18.515Z,571.7
2022-10-06T16:02:30.719Z,571.5
2022-10-06T16:04:09.460Z,570.9
2022-10-06T16:05:21.656Z,572.7
2022-10-06T16:06:28.917Z,571.8
2022-10-06T16:08:07.654Z,571.9
2022-10-06T16:09:46.457Z,573.2
2022-10-06T16:11:25.107Z,572.5
2022-10-06T16:13:03.836Z,571.4
2022-10-06T16:14:42.581Z,567.5
2022-10-06T16:16:21.312Z,570.3
2022-10-06T16:18:00.054Z,569.2
2022-10-06T16:19:38.784Z,570.6
2022-10-06T16:21:17.525Z,570.6
2022-10-06T16:22:57.267Z,572.8
2022-10-06T16:26:12.837Z,573.6
2022-10-06T16:27:19.252Z,567.1
2022-10-06T16:28:25.674Z,568
2022-10-06T16:29:32.153Z,569.6
2022-10-06T16:30:38.542Z,567.9
2022-10-06T16:31:44.984Z,566.6
2022-10-06T16:32:51.419Z,568.1
2022-10-06T16:33:57.851Z,563.3
2022-10-06T16:35:04.290Z,565.7
2022-10-06T16:36:10.722Z,564.4
2022-10-06T16:37:17.153Z,567.1
2022-10-06T16:38:23.592Z,564.9
2022-10-06T16:39:30.035Z,565
2022-10-06T16:40:36.467Z,564.7
2022-10-06T16:41:42.903Z,562.3
2022-10-06T16:42:49.332Z,563.1
2022-10-06T16:43:55.780Z,566.4
2022-10-06T16:45:02.238Z,566.2
2022-10-06T16:46:08.652Z,566
2022-10-06T16:47:15.084Z,566.6
2022-10-06T16:48:21.520Z,561.8
2022-10-06T16:49:27.959Z,561.7
2022-10-06T16:50:34.388Z,562.4
2022-10-06T16:51:40.823Z,560.7
2022-10-06T16:52:47.251Z,559.8
2022-10-06T16:53:53.835Z,554.4
2022-10-06T16:55:00.379Z,555.2
2022-10-06T16:56:06.926Z,558.2
2022-10-06T16:57:13.487Z,556.4
2022-10-06T16:58:20.068Z,557
2022-10-06T16:59:26.601Z,558.2
2022-10-06T17:00:33.149Z,557.1
2022-10-06T17:01:39.773Z,556.1
2022-10-06T17:02:46.254Z,553.8
2022-10-06T17:03:52.802Z,553.9
2022-10-06T17:04:59.356Z,553.1
2022-10-06T17:06:05.916Z,554.6
2022-10-06T17:07:12.491Z,548.4
2022-10-06T17:09:01.768Z,551.5
2022-10-06T17:10:08.599Z,551.6
2022-10-06T17:11:15.349Z,550.2
2022-10-06T17:12:22.144Z,552.4
2022-10-06T17:13:28.934Z,551.7
2022-10-06T17:14:35.727Z,554
2022-10-06T17:15:42.516Z,550
2022-10-06T17:16:49.308Z,550.7
2022-10-06T17:17:56.108Z,544.3